windsock image

Welcome to Bigfield Strip.

anemometer image
     

 Help for dials.  
 
Local Met:

Wind:   
10 Min average:  
348 ° / 7.3 kts (7.0)
357° / 7.4

Temperature:  
2.4°C C
Dew Point:  
-1.2°C C
QNH:  
Trend:  
993.3 mb mb
+0.8mb/hr
BigField Strip. This image updates approximately every minute, it can have a two minute delay.  
 

Humidity:  
77 %
Sunrise:   07:45z
Sunset:   16:49z
Updated:  
  UTC
 
   More met info, trends, radar, history etc. available here   

LUTON Metar   EGGW 312050Z 31017KT 9999 BKN043 02/M02 Q0991
 
  TAF   2015/01/31 18:15 TAF EGGW 311657Z 3118/0118 33015KT 9999 SCT015 TEMPO 3118/0115 32020G30KT BECMG 3123/0102 BKN008 TEMPO 0102/0109 3000 -SN PROB40 TEMPO 0102/0107 1200 SN BKN002 BECMG 0109/0112 FEW024 TEMPO 0115/0118 32015G25KT
 
BENSON Metar   EGUB 311950Z AUTO 31011KT 9999 // OVC044/// 03/M02 Q0993
 
  TAF   2015/01/31 15:09 TAF TAF EGUB 311339Z 3115/3118 32015G25KT 9999 SCT030
 
Big Field view 1 icon   Big Field view 2 icon   Big Field view 3 icon   Chart AL3a in PDF icon   Chart AL3a in Word icon

WARNING:
This information is provided by the Airstrip unofficial weather station, DO NOT depend on the data provided here for any purpose.
This page is updated for latest Metars & TAF's every 5 minutes. Refresh the browser to check for the lastest.
Page designed for a minimum browser size of 1024x768.
© Copyright 2015 BigField Strip. This page auto generated 21:01 UTC - 31/01/2015   Contact Us
Valid HTML 4.01 Transitional     Windows uptime: 5 Days 18 Hours 29 Minutes 19 Seconds    WD started: 02:38 26/01/15    Free memory: 1491MB     Valid CSS!